createdAt,value
2022-10-25T00:00:12.749Z,4.38
2022-10-25T00:02:39.948Z,4.90
2022-10-25T00:05:07.499Z,4.93
2022-10-25T00:07:34.576Z,4.70
2022-10-25T00:10:01.672Z,4.55
2022-10-25T00:12:28.834Z,4.13
2022-10-25T00:14:55.959Z,4.38
2022-10-25T00:17:23.088Z,5.00
2022-10-25T00:19:50.250Z,4.40
2022-10-25T00:22:17.344Z,5.78
2022-10-25T00:24:44.469Z,4.55
2022-10-25T00:27:11.600Z,4.55
2022-10-25T00:29:38.753Z,4.90
2022-10-25T00:32:05.908Z,5.03
2022-10-25T00:34:33.120Z,4.85
2022-10-25T00:37:00.234Z,4.80
2022-10-25T00:39:27.409Z,4.38
2022-10-25T00:41:54.600Z,4.80
2022-10-25T00:44:37.087Z,4.80
2022-10-25T00:47:05.639Z,4.65
2022-10-25T00:49:33.359Z,4.68
2022-10-25T00:52:02.928Z,4.15
2022-10-25T00:54:32.285Z,4.53
2022-10-25T00:57:00.260Z,4.67
2022-10-25T00:59:28.231Z,4.10
2022-10-25T01:01:56.359Z,3.95
2022-10-25T01:04:26.455Z,3.78
2022-10-25T01:06:54.254Z,4.07
2022-10-25T01:09:22.685Z,4.43
2022-10-25T01:11:49.823Z,4.28
2022-10-25T01:14:17.775Z,4.07
2022-10-25T01:17:00.665Z,3.95
2022-10-25T01:19:46.791Z,4.80
2022-10-25T01:22:29.178Z,4.07
2022-10-25T01:24:56.301Z,3.47
2022-10-25T01:27:41.751Z,3.70
2022-10-25T01:30:11.523Z,3.53
2022-10-25T01:32:41.653Z,3.13
2022-10-25T01:35:20.612Z,3.30
2022-10-25T01:37:48.205Z,2.95
2022-10-25T01:40:15.580Z,3.60
2022-10-25T01:42:59.354Z,3.22
2022-10-25T01:45:31.445Z,3.60
2022-10-25T01:48:01.591Z,3.20
2022-10-25T01:50:33.351Z,3.05
2022-10-25T01:53:00.534Z,3.17
2022-10-25T01:55:35.656Z,3.13
2022-10-25T01:58:12.707Z,2.97
2022-10-25T02:00:49.379Z,2.93
2022-10-25T02:03:19.598Z,3.10
2022-10-25T02:05:58.831Z,3.20
2022-10-25T02:08:42.695Z,2.95
2022-10-25T02:11:33.268Z,3.60
2022-10-25T02:14:00.379Z,3.37
2022-10-25T02:16:35.196Z,3.15
2022-10-25T02:19:03.240Z,3.28
2022-10-25T02:21:32.457Z,3.15
2022-10-25T02:24:00.655Z,3.15
2022-10-25T02:26:28.337Z,3.07
2022-10-25T02:28:55.674Z,3.05
2022-10-25T02:31:24.339Z,2.72
2022-10-25T02:33:51.590Z,2.83
2022-10-25T02:36:22.909Z,3.33
2022-10-25T02:38:51.101Z,2.90
2022-10-25T02:41:18.939Z,2.63
2022-10-25T02:43:46.058Z,2.75
2022-10-25T02:46:14.789Z,3.00
2022-10-25T02:48:42.241Z,3.10
2022-10-25T02:51:10.090Z,3.50
2022-10-25T02:53:37.491Z,3.00
2022-10-25T02:56:07.661Z,3.30
2022-10-25T02:58:36.363Z,2.67
2022-10-25T03:01:04.316Z,3.40
2022-10-25T03:03:31.924Z,2.80
2022-10-25T03:05:59.070Z,3.15
2022-10-25T03:10:54.722Z,2.55
2022-10-25T03:13:22.196Z,2.47
2022-10-25T03:15:49.322Z,2.60
2022-10-25T03:18:16.476Z,2.40
2022-10-25T03:20:44.046Z,2.60
2022-10-25T03:23:11.740Z,2.88
2022-10-25T03:25:39.174Z,3.03
2022-10-25T03:28:06.353Z,2.57
2022-10-25T03:30:33.700Z,3.17
2022-10-25T03:33:00.933Z,3.50
2022-10-25T03:35:28.060Z,3.00
2022-10-25T03:37:55.395Z,3.00
2022-10-25T03:40:22.672Z,3.00
2022-10-25T03:42:49.862Z,2.40
2022-10-25T03:45:17.078Z,3.33
2022-10-25T03:47:44.564Z,2.40
2022-10-25T03:50:12.228Z,2.72
2022-10-25T03:52:39.462Z,2.73
2022-10-25T03:55:07.104Z,2.70
2022-10-25T03:57:34.477Z,2.95
2022-10-25T04:00:01.586Z,2.70
2022-10-25T04:02:29.222Z,2.63
2022-10-25T04:04:56.385Z,2.80
2022-10-25T04:07:23.514Z,2.95
2022-10-25T04:09:50.615Z,2.83
2022-10-25T04:12:17.748Z,3.50
2022-10-25T04:14:44.828Z,3.60
2022-10-25T04:17:11.931Z,3.70
2022-10-25T04:19:39.047Z,3.33
2022-10-25T04:22:06.124Z,3.55
2022-10-25T04:24:33.349Z,3.47
2022-10-25T04:27:00.448Z,4.10
2022-10-25T04:29:30.703Z,3.40
2022-10-25T04:31:57.872Z,4.13
2022-10-25T04:34:24.996Z,3.60
2022-10-25T04:36:52.177Z,3.50
2022-10-25T04:39:19.320Z,3.40
2022-10-25T04:41:46.406Z,3.53
2022-10-25T04:44:13.544Z,3.30
2022-10-25T04:46:43.987Z,3.67
2022-10-25T04:49:13.986Z,3.65
2022-10-25T04:51:41.865Z,3.88
2022-10-25T04:54:09.081Z,4.30
2022-10-25T04:56:36.293Z,3.70
2022-10-25T04:59:03.531Z,4.03
2022-10-25T05:01:30.683Z,3.10
2022-10-25T05:03:58.086Z,3.60
2022-10-25T05:06:26.673Z,3.27
2022-10-25T05:08:54.432Z,3.08
2022-10-25T05:11:22.772Z,3.20
2022-10-25T05:13:49.969Z,3.00
2022-10-25T05:16:23.476Z,3.22
2022-10-25T05:18:51.534Z,4.07
2022-10-25T05:21:19.125Z,3.47
2022-10-25T05:23:46.570Z,3.40
2022-10-25T05:26:18.648Z,3.40
2022-10-25T05:28:46.826Z,3.83
2022-10-25T05:31:34.190Z,3.40
2022-10-25T05:34:01.733Z,2.92
2022-10-25T05:36:29.511Z,2.92
2022-10-25T05:38:56.773Z,3.22
2022-10-25T05:41:23.884Z,3.30
2022-10-25T05:43:50.994Z,3.00
2022-10-25T05:46:22.355Z,3.78
2022-10-25T05:48:50.227Z,4.05
2022-10-25T05:51:34.546Z,2.78
2022-10-25T05:54:04.659Z,3.28
2022-10-25T05:56:32.499Z,3.57
2022-10-25T05:59:02.411Z,2.60
2022-10-25T06:01:29.631Z,3.20
2022-10-25T06:03:56.864Z,3.00
2022-10-25T06:06:24.092Z,3.53
2022-10-25T06:08:51.303Z,3.40
2022-10-25T06:11:19.565Z,4.00
2022-10-25T06:13:50.078Z,3.88
2022-10-25T06:16:19.065Z,3.78
2022-10-25T06:18:46.217Z,3.80
2022-10-25T06:21:14.591Z,4.03
2022-10-25T06:23:42.922Z,4.03
2022-10-25T06:26:10.958Z,4.05
2022-10-25T06:28:38.554Z,4.38
2022-10-25T06:31:06.401Z,4.50
2022-10-25T06:33:36.693Z,4.30
2022-10-25T06:36:05.118Z,4.30
2022-10-25T06:38:32.325Z,4.50
2022-10-25T06:41:02.805Z,4.30
2022-10-25T06:43:30.488Z,4.05
2022-10-25T06:45:57.875Z,4.40
2022-10-25T06:48:25.383Z,4.63
2022-10-25T06:51:11.751Z,4.95
2022-10-25T06:53:38.857Z,4.63
2022-10-25T06:56:09.333Z,4.75
2022-10-25T06:58:41.605Z,4.20
2022-10-25T07:01:11.113Z,4.25
2022-10-25T07:03:38.370Z,4.57
2022-10-25T07:06:07.179Z,4.35
2022-10-25T07:08:34.928Z,4.93
2022-10-25T07:11:02.279Z,4.60
2022-10-25T07:13:30.998Z,4.28
2022-10-25T07:16:05.040Z,4.40
2022-10-25T07:18:32.579Z,4.25
2022-10-25T07:21:03.131Z,4.88
2022-10-25T07:23:30.550Z,4.93
2022-10-25T07:25:57.974Z,5.03
2022-10-25T07:28:25.397Z,4.97
2022-10-25T07:30:52.472Z,4.90
2022-10-25T07:33:20.414Z,5.40
2022-10-25T07:36:06.131Z,5.60
2022-10-25T07:38:37.419Z,5.25
2022-10-25T07:41:04.713Z,6.15
2022-10-25T07:43:31.828Z,5.88
2022-10-25T07:45:58.866Z,5.40
2022-10-25T07:48:26.449Z,5.37
2022-10-25T07:50:53.499Z,5.82
2022-10-25T07:53:20.642Z,5.68
2022-10-25T07:55:52.080Z,5.75
2022-10-25T07:58:19.441Z,5.93
2022-10-25T08:00:46.552Z,5.90
2022-10-25T08:03:14.412Z,5.43
2022-10-25T08:05:41.532Z,6.25
2022-10-25T08:08:08.598Z,6.30
2022-10-25T08:10:35.714Z,5.72
2022-10-25T08:13:02.780Z,6.33
2022-10-25T08:15:29.831Z,6.10
2022-10-25T08:18:00.221Z,6.38
2022-10-25T08:20:49.147Z,6.28
2022-10-25T08:23:15.033Z,6.30
2022-10-25T08:25:42.205Z,6.10
2022-10-25T08:28:09.291Z,5.95
2022-10-25T08:30:36.430Z,5.95
2022-10-25T08:33:03.616Z,6.05
2022-10-25T08:35:30.688Z,6.30
2022-10-25T08:38:00.888Z,5.87
2022-10-25T08:40:51.016Z,6.57
2022-10-25T08:43:39.953Z,6.70
2022-10-25T08:46:13.577Z,6.28
2022-10-25T08:48:43.618Z,6.10
2022-10-25T08:51:22.803Z,5.90
2022-10-25T08:53:51.237Z,6.07
2022-10-25T08:56:19.220Z,6.15
2022-10-25T08:58:58.746Z,6.28
2022-10-25T09:01:29.315Z,6.30
2022-10-25T09:03:56.662Z,6.40
2022-10-25T09:06:23.714Z,6.40
2022-10-25T09:09:04.239Z,6.65
2022-10-25T09:11:50.409Z,6.65
2022-10-25T09:14:28.738Z,6.72
2022-10-25T09:17:05.705Z,6.97
2022-10-25T09:19:37.051Z,7.20
2022-10-25T09:22:06.944Z,8.23
2022-10-25T09:24:37.545Z,7.30
2022-10-25T09:27:25.520Z,7.45
2022-10-25T09:30:02.558Z,7.40
2022-10-25T09:32:40.098Z,6.80
2022-10-25T09:35:13.295Z,6.80
2022-10-25T09:37:42.889Z,6.82
2022-10-25T09:40:15.424Z,6.68
2022-10-25T09:42:53.827Z,5.73
2022-10-25T09:45:33.198Z,5.47
2022-10-25T09:48:03.359Z,5.88
2022-10-25T09:50:31.539Z,5.72
2022-10-25T09:53:11.715Z,5.30
2022-10-25T09:55:57.569Z,5.20
2022-10-25T09:58:29.083Z,5.35
2022-10-25T10:00:57.770Z,5.13
2022-10-25T10:03:28.624Z,5.80
2022-10-25T10:05:57.504Z,6.05
2022-10-25T10:08:25.502Z,6.50
2022-10-25T10:10:53.928Z,6.60
2022-10-25T10:13:34.311Z,7.40
2022-10-25T10:16:06.790Z,7.47
2022-10-25T16:33:34.225Z,4.45
2022-10-25T16:36:01.266Z,5.40
2022-10-25T16:38:28.355Z,4.57
2022-10-25T16:40:56.684Z,4.78
2022-10-25T16:43:23.747Z,5.35
2022-10-25T16:45:50.875Z,4.78
2022-10-25T16:48:17.987Z,4.67
2022-10-25T16:50:45.136Z,4.88
2022-10-25T16:53:13.375Z,5.00
2022-10-25T16:55:40.424Z,5.25
2022-10-25T16:58:07.492Z,5.00
2022-10-25T17:00:35.929Z,5.40
2022-10-25T17:03:03.560Z,5.15
2022-10-25T17:05:32.910Z,5.38
2022-10-25T17:08:00.106Z,6.22
2022-10-25T17:10:28.482Z,5.07
2022-10-25T17:13:03.213Z,5.13
2022-10-25T17:15:31.439Z,5.78
2022-10-25T17:17:58.664Z,5.20
2022-10-25T17:20:26.083Z,5.15
2022-10-25T17:22:54.203Z,4.80
2022-10-25T17:25:21.339Z,5.07
2022-10-25T17:27:51.173Z,4.90
2022-10-25T17:30:18.936Z,5.30
2022-10-25T17:32:45.982Z,4.80
2022-10-25T17:35:13.456Z,5.03
2022-10-25T17:37:43.358Z,4.97
2022-10-25T17:40:11.751Z,4.28
2022-10-25T17:42:38.847Z,4.25
2022-10-25T17:45:06.354Z,4.35
2022-10-25T17:47:33.395Z,4.40
2022-10-25T17:50:01.574Z,4.03
2022-10-25T17:52:28.781Z,3.75
2022-10-25T17:54:55.839Z,3.95
2022-10-25T17:57:22.876Z,4.07
2022-10-25T17:59:50.310Z,3.80
2022-10-25T18:02:17.570Z,4.20
2022-10-25T18:05:01.083Z,3.83
2022-10-25T18:07:35.000Z,4.03
2022-10-25T18:10:02.359Z,4.00
2022-10-25T18:12:30.303Z,4.65
2022-10-25T18:14:57.695Z,3.80
2022-10-25T18:17:24.728Z,3.60
2022-10-25T18:19:51.823Z,3.38
2022-10-25T18:22:20.944Z,3.40
2022-10-25T18:24:48.247Z,3.50
2022-10-25T18:27:16.027Z,3.57
2022-10-25T18:29:43.358Z,3.35
2022-10-25T18:32:10.416Z,3.28
2022-10-25T18:34:37.479Z,3.58
2022-10-25T18:37:04.535Z,4.25
2022-10-25T18:39:31.639Z,4.10
2022-10-25T18:41:58.693Z,4.28
2022-10-25T18:44:25.779Z,4.05
2022-10-25T18:46:53.901Z,3.60
2022-10-25T18:49:21.041Z,4.20
2022-10-25T18:51:48.086Z,3.50
2022-10-25T18:54:15.175Z,3.63
2022-10-25T18:56:42.232Z,4.05
2022-10-25T18:59:10.014Z,3.78
2022-10-25T19:01:37.880Z,4.05
2022-10-25T19:04:05.441Z,3.70
2022-10-25T19:06:33.224Z,3.60
2022-10-25T19:09:00.460Z,4.10
2022-10-25T19:11:27.621Z,3.83
2022-10-25T19:13:55.572Z,3.72
2022-10-25T19:16:23.256Z,3.93
2022-10-25T19:18:50.321Z,3.55
2022-10-25T19:21:18.302Z,3.85
2022-10-25T19:23:46.282Z,4.22
2022-10-25T19:26:18.372Z,3.83
2022-10-25T19:28:45.871Z,3.50
2022-10-25T19:31:14.361Z,4.03
2022-10-25T19:33:45.313Z,3.70
2022-10-25T19:36:12.726Z,3.50
2022-10-25T19:38:40.239Z,3.55
2022-10-25T19:41:08.625Z,3.50
2022-10-25T19:43:36.314Z,4.00
2022-10-25T19:46:04.731Z,3.83
2022-10-25T19:48:32.324Z,4.35
2022-10-25T19:51:04.704Z,3.67
2022-10-25T19:53:31.797Z,4.10
2022-10-25T19:55:59.850Z,4.20
2022-10-25T19:58:27.167Z,4.03
2022-10-25T20:01:01.531Z,3.60
2022-10-25T20:03:28.914Z,4.00
2022-10-25T20:06:03.370Z,3.53
2022-10-25T20:08:32.915Z,3.80
2022-10-25T20:11:00.045Z,3.67
2022-10-25T20:13:27.099Z,3.55
2022-10-25T20:15:55.680Z,3.80
2022-10-25T20:18:24.180Z,3.30
2022-10-25T20:20:53.827Z,3.83
2022-10-25T20:23:21.076Z,3.58
2022-10-25T20:25:48.253Z,3.53
2022-10-25T20:28:15.317Z,3.60
2022-10-25T20:30:42.412Z,3.53
2022-10-25T20:33:09.495Z,3.67
2022-10-25T20:35:40.575Z,3.65
2022-10-25T20:38:08.207Z,3.90
2022-10-25T20:40:35.559Z,4.22
2022-10-25T20:43:02.626Z,4.07
2022-10-25T20:45:30.250Z,4.00
2022-10-25T20:47:58.080Z,3.90
2022-10-25T20:50:26.525Z,4.30
2022-10-25T20:53:10.463Z,4.43
2022-10-25T20:55:38.031Z,3.63
2022-10-25T20:58:05.303Z,3.90
2022-10-25T21:00:32.814Z,4.20
2022-10-25T21:03:00.180Z,4.22
2022-10-25T21:05:27.241Z,4.60
2022-10-25T21:07:54.362Z,4.20
2022-10-25T21:10:21.479Z,4.15
2022-10-25T21:12:48.531Z,4.45
2022-10-25T21:15:15.712Z,5.03
2022-10-25T21:17:42.776Z,4.55
2022-10-25T21:20:10.078Z,4.47
2022-10-25T21:22:40.962Z,4.68
2022-10-25T21:25:08.267Z,4.63
2022-10-25T21:27:35.329Z,4.70
2022-10-25T21:30:02.384Z,5.03
2022-10-25T21:32:29.486Z,4.80
2022-10-25T21:34:56.523Z,4.43
2022-10-25T21:37:23.561Z,4.53
2022-10-25T21:39:50.612Z,5.10
2022-10-25T21:42:17.715Z,4.43
2022-10-25T21:44:44.783Z,4.90
2022-10-25T21:47:11.842Z,4.72
2022-10-25T21:49:38.923Z,4.85
2022-10-25T21:52:06.194Z,4.72
2022-10-25T21:54:33.268Z,4.88
2022-10-25T21:57:00.329Z,4.57
2022-10-25T21:59:27.396Z,4.85
2022-10-25T22:01:54.538Z,4.75
2022-10-25T22:04:23.723Z,4.93
2022-10-25T22:06:50.885Z,5.30
2022-10-25T22:09:17.931Z,5.00
2022-10-25T22:11:45.025Z,5.30
2022-10-25T22:14:14.187Z,5.15
2022-10-25T22:16:41.553Z,5.28
2022-10-25T22:19:13.142Z,5.45
2022-10-25T22:21:41.071Z,5.20
2022-10-25T22:24:09.137Z,5.40
2022-10-25T22:26:37.375Z,5.15
2022-10-25T22:29:04.672Z,5.05
2022-10-25T22:31:31.839Z,5.45
2022-10-25T22:34:03.288Z,5.80
2022-10-25T22:36:31.761Z,5.38
2022-10-25T22:38:59.359Z,5.43
2022-10-25T22:41:27.317Z,5.68
2022-10-25T22:43:54.575Z,5.28
2022-10-25T22:46:34.812Z,5.03
2022-10-25T22:49:05.512Z,5.90
2022-10-25T22:51:32.628Z,6.18
2022-10-25T22:53:59.725Z,5.20
2022-10-25T22:56:27.970Z,5.47
2022-10-25T22:58:56.229Z,5.63
2022-10-25T23:01:24.734Z,5.80
2022-10-25T23:03:56.189Z,5.78
2022-10-25T23:06:30.738Z,5.35
2022-10-25T23:08:58.920Z,5.95
2022-10-25T23:11:29.738Z,5.57
2022-10-25T23:13:57.186Z,5.85
2022-10-25T23:16:24.702Z,6.00
2022-10-25T23:18:51.943Z,5.68
2022-10-25T23:21:20.239Z,5.75
2022-10-25T23:23:47.671Z,5.53
2022-10-25T23:26:19.484Z,5.63
2022-10-25T23:28:46.632Z,6.00
2022-10-25T23:31:14.112Z,5.70
2022-10-25T23:33:44.459Z,5.90
2022-10-25T23:36:12.889Z,5.77
2022-10-25T23:38:40.039Z,6.13
2022-10-25T23:41:07.148Z,6.45
2022-10-25T23:43:34.809Z,6.10
2022-10-25T23:46:01.992Z,6.13
2022-10-25T23:48:29.156Z,6.10
2022-10-25T23:50:57.395Z,5.95
2022-10-25T23:53:24.917Z,5.60
2022-10-25T23:55:52.125Z,6.72
2022-10-25T23:58:19.247Z,6.10
